sensor_id;sensor_type;location;lat;lon;timestamp;temperature;humidity
29501;DHT22;16450;50.288;10.966;2024-03-02T00:01:29;5.40;99.90
29501;DHT22;16450;50.288;10.966;2024-03-02T00:04:31;5.40;99.90
29501;DHT22;16450;50.288;10.966;2024-03-02T00:07:33;5.40;99.90
29501;DHT22;16450;50.288;10.966;2024-03-02T00:10:39;5.40;99.90
29501;DHT22;16450;50.288;10.966;2024-03-02T00:13:42;5.40;99.90
29501;DHT22;16450;50.288;10.966;2024-03-02T00:16:44;5.40;99.90
29501;DHT22;16450;50.288;10.966;2024-03-02T00:19:45;5.40;99.90
29501;DHT22;16450;50.288;10.966;2024-03-02T00:22:47;5.40;99.90
29501;DHT22;16450;50.288;10.966;2024-03-02T00:25:53;5.40;99.90
29501;DHT22;16450;50.288;10.966;2024-03-02T00:28:56;5.40;99.90
29501;DHT22;16450;50.288;10.966;2024-03-02T00:32:02;5.30;99.90
29501;DHT22;16450;50.288;10.966;2024-03-02T00:35:05;5.30;99.90
29501;DHT22;16450;50.288;10.966;2024-03-02T00:38:07;5.30;99.90
29501;DHT22;16450;50.288;10.966;2024-03-02T00:41:21;5.30;99.90
29501;DHT22;16450;50.288;10.966;2024-03-02T00:44:26;5.30;99.90
29501;DHT22;16450;50.288;10.966;2024-03-02T00:47:28;5.30;99.90
29501;DHT22;16450;50.288;10.966;2024-03-02T00:50:30;5.30;99.90
29501;DHT22;16450;50.288;10.966;2024-03-02T00:53:34;5.30;99.90
29501;DHT22;16450;50.288;10.966;2024-03-02T00:56:36;5.30;99.90
29501;DHT22;16450;50.288;10.966;2024-03-02T00:59:37;5.30;99.90
29501;DHT22;16450;50.288;10.966;2024-03-02T01:02:39;5.30;99.90
29501;DHT22;16450;50.288;10.966;2024-03-02T01:05:42;5.30;99.90
29501;DHT22;16450;50.288;10.966;2024-03-02T01:08:44;5.30;99.90
29501;DHT22;16450;50.288;10.966;2024-03-02T01:11:46;5.30;99.90
29501;DHT22;16450;50.288;10.966;2024-03-02T01:14:48;5.30;99.90
29501;DHT22;16450;50.288;10.966;2024-03-02T01:17:50;5.30;99.90
29501;DHT22;16450;50.288;10.966;2024-03-02T01:20:56;5.30;99.90
29501;DHT22;16450;50.288;10.966;2024-03-02T01:23:58;5.30;99.90
29501;DHT22;16450;50.288;10.966;2024-03-02T01:26:59;5.30;99.90
29501;DHT22;16450;50.288;10.966;2024-03-02T01:30:01;5.30;99.90
29501;DHT22;16450;50.288;10.966;2024-03-02T01:33:03;5.30;99.90
29501;DHT22;16450;50.288;10.966;2024-03-02T01:36:07;5.30;99.90
29501;DHT22;16450;50.288;10.966;2024-03-02T01:39:10;5.30;99.90
29501;DHT22;16450;50.288;10.966;2024-03-02T01:42:12;5.30;99.90
29501;DHT22;16450;50.288;10.966;2024-03-02T01:45:14;5.30;99.90
29501;DHT22;16450;50.288;10.966;2024-03-02T01:48:16;5.20;99.90
29501;DHT22;16450;50.288;10.966;2024-03-02T01:51:18;5.30;99.90
29501;DHT22;16450;50.288;10.966;2024-03-02T01:54:20;5.20;99.90
29501;DHT22;16450;50.288;10.966;2024-03-02T01:57:24;5.20;99.90
29501;DHT22;16450;50.288;10.966;2024-03-02T02:00:26;5.20;99.90
29501;DHT22;16450;50.288;10.966;2024-03-02T02:03:29;5.30;99.90
29501;DHT22;16450;50.288;10.966;2024-03-02T02:06:31;5.30;99.90
29501;DHT22;16450;50.288;10.966;2024-03-02T02:09:33;5.20;99.90
29501;DHT22;16450;50.288;10.966;2024-03-02T02:12:35;5.20;99.90
29501;DHT22;16450;50.288;10.966;2024-03-02T02:15:37;5.30;99.90
29501;DHT22;16450;50.288;10.966;2024-03-02T02:18:39;5.20;99.90
29501;DHT22;16450;50.288;10.966;2024-03-02T02:21:43;5.20;99.90
29501;DHT22;16450;50.288;10.966;2024-03-02T02:24:45;5.20;99.90
29501;DHT22;16450;50.288;10.966;2024-03-02T02:27:46;5.20;99.90
29501;DHT22;16450;50.288;10.966;2024-03-02T02:30:48;5.20;99.90
29501;DHT22;16450;50.288;10.966;2024-03-02T02:33:50;5.30;99.90
29501;DHT22;16450;50.288;10.966;2024-03-02T02:36:52;5.30;99.90
29501;DHT22;16450;50.288;10.966;2024-03-02T02:39:55;5.20;99.90
29501;DHT22;16450;50.288;10.966;2024-03-02T02:42:57;5.30;99.90
29501;DHT22;16450;50.288;10.966;2024-03-02T02:46:00;5.30;99.90
29501;DHT22;16450;50.288;10.966;2024-03-02T02:49:02;5.30;99.90
29501;DHT22;16450;50.288;10.966;2024-03-02T02:52:04;5.30;99.90
29501;DHT22;16450;50.288;10.966;2024-03-02T02:55:11;5.30;99.90
29501;DHT22;16450;50.288;10.966;2024-03-02T02:58:13;5.30;99.90
29501;DHT22;16450;50.288;10.966;2024-03-02T03:01:16;5.30;99.90
29501;DHT22;16450;50.288;10.966;2024-03-02T03:04:21;5.30;99.90
29501;DHT22;16450;50.288;10.966;2024-03-02T03:07:23;5.40;99.90
29501;DHT22;16450;50.288;10.966;2024-03-02T03:10:25;5.40;99.90
29501;DHT22;16450;50.288;10.966;2024-03-02T03:13:29;5.40;99.90
29501;DHT22;16450;50.288;10.966;2024-03-02T03:16:31;5.40;99.90
29501;DHT22;16450;50.288;10.966;2024-03-02T03:19:32;5.40;99.90
29501;DHT22;16450;50.288;10.966;2024-03-02T03:22:34;5.40;99.90
29501;DHT22;16450;50.288;10.966;2024-03-02T03:25:37;5.40;99.90
29501;DHT22;16450;50.288;10.966;2024-03-02T03:28:38;5.40;99.90
29501;DHT22;16450;50.288;10.966;2024-03-02T03:31:40;5.40;99.90
29501;DHT22;16450;50.288;10.966;2024-03-02T03:34:42;5.40;99.90
29501;DHT22;16450;50.288;10.966;2024-03-02T03:37:44;5.40;99.90
29501;DHT22;16450;50.288;10.966;2024-03-02T03:40:46;5.40;99.90
29501;DHT22;16450;50.288;10.966;2024-03-02T03:43:49;5.40;99.90
29501;DHT22;16450;50.288;10.966;2024-03-02T03:46:51;5.40;99.90
29501;DHT22;16450;50.288;10.966;2024-03-02T03:49:53;5.40;99.90
29501;DHT22;16450;50.288;10.966;2024-03-02T03:52:54;5.40;99.90
29501;DHT22;16450;50.288;10.966;2024-03-02T03:55:56;5.40;99.90
29501;DHT22;16450;50.288;10.966;2024-03-02T03:58:58;5.40;99.90
29501;DHT22;16450;50.288;10.966;2024-03-02T04:02:01;5.40;99.90
29501;DHT22;16450;50.288;10.966;2024-03-02T04:05:04;5.30;99.90
29501;DHT22;16450;50.288;10.966;2024-03-02T04:08:10;5.30;99.90
29501;DHT22;16450;50.288;10.966;2024-03-02T04:11:13;5.30;99.90
29501;DHT22;16450;50.288;10.966;2024-03-02T04:14:15;5.30;99.90
29501;DHT22;16450;50.288;10.966;2024-03-02T04:17:16;5.30;99.90
29501;DHT22;16450;50.288;10.966;2024-03-02T04:20:18;5.30;99.90
29501;DHT22;16450;50.288;10.966;2024-03-02T04:23:20;5.30;99.90
29501;DHT22;16450;50.288;10.966;2024-03-02T04:26:22;5.20;99.90
29501;DHT22;16450;50.288;10.966;2024-03-02T04:29:24;5.20;99.90
29501;DHT22;16450;50.288;10.966;2024-03-02T04:32:26;5.20;99.90
29501;DHT22;16450;50.288;10.966;2024-03-02T04:35:29;5.20;99.90
29501;DHT22;16450;50.288;10.966;2024-03-02T04:38:30;5.10;99.90
29501;DHT22;16450;50.288;10.966;2024-03-02T04:41:33;5.10;99.90
29501;DHT22;16450;50.288;10.966;2024-03-02T04:44:35;5.10;99.90
29501;DHT22;16450;50.288;10.966;2024-03-02T04:47:37;5.00;99.90
29501;DHT22;16450;50.288;10.966;2024-03-02T04:50:39;5.00;99.90
29501;DHT22;16450;50.288;10.966;2024-03-02T04:53:41;5.00;99.90
29501;DHT22;16450;50.288;10.966;2024-03-02T04:56:42;4.90;99.90
29501;DHT22;16450;50.288;10.966;2024-03-02T04:59:51;4.90;99.90
29501;DHT22;16450;50.288;10.966;2024-03-02T05:02:53;4.90;99.90
29501;DHT22;16450;50.288;10.966;2024-03-02T05:05:55;4.90;99.90
29501;DHT22;16450;50.288;10.966;2024-03-02T05:08:57;4.80;99.90
29501;DHT22;16450;50.288;10.966;2024-03-02T05:11:59;4.80;99.90
29501;DHT22;16450;50.288;10.966;2024-03-02T05:15:31;4.80;99.90
29501;DHT22;16450;50.288;10.966;2024-03-02T05:18:33;4.80;99.90
29501;DHT22;16450;50.288;10.966;2024-03-02T05:21:35;4.80;99.90
29501;DHT22;16450;50.288;10.966;2024-03-02T05:24:37;4.80;99.90
29501;DHT22;16450;50.288;10.966;2024-03-02T05:27:39;4.80;99.90
29501;DHT22;16450;50.288;10.966;2024-03-02T05:30:42;4.80;99.90
29501;DHT22;16450;50.288;10.966;2024-03-02T05:33:44;4.80;99.90
29501;DHT22;16450;50.288;10.966;2024-03-02T05:36:46;4.80;99.90
29501;DHT22;16450;50.288;10.966;2024-03-02T05:39:48;4.90;99.90
29501;DHT22;16450;50.288;10.966;2024-03-02T05:42:50;4.80;99.90
29501;DHT22;16450;50.288;10.966;2024-03-02T05:45:52;4.80;99.90
29501;DHT22;16450;50.288;10.966;2024-03-02T05:48:54;4.80;99.90
29501;DHT22;16450;50.288;10.966;2024-03-02T05:51:56;4.80;99.90
29501;DHT22;16450;50.288;10.966;2024-03-02T05:54:58;4.80;99.90
29501;DHT22;16450;50.288;10.966;2024-03-02T05:58:01;4.80;99.90
29501;DHT22;16450;50.288;10.966;2024-03-02T06:01:08;4.80;99.90
29501;DHT22;16450;50.288;10.966;2024-03-02T06:04:11;4.80;99.90
29501;DHT22;16450;50.288;10.966;2024-03-02T06:07:12;4.80;99.90
29501;DHT22;16450;50.288;10.966;2024-03-02T06:10:14;4.80;99.90
29501;DHT22;16450;50.288;10.966;2024-03-02T06:13:16;4.80;99.90
29501;DHT22;16450;50.288;10.966;2024-03-02T06:16:18;4.80;99.90
29501;DHT22;16450;50.288;10.966;2024-03-02T06:19:20;4.80;99.90
29501;DHT22;16450;50.288;10.966;2024-03-02T06:22:23;4.80;99.90
29501;DHT22;16450;50.288;10.966;2024-03-02T06:25:26;4.90;99.90
29501;DHT22;16450;50.288;10.966;2024-03-02T06:28:28;4.90;99.90
29501;DHT22;16450;50.288;10.966;2024-03-02T06:31:30;4.90;99.90
29501;DHT22;16450;50.288;10.966;2024-03-02T06:34:32;4.90;99.90
29501;DHT22;16450;50.288;10.966;2024-03-02T06:37:34;5.00;99.90
29501;DHT22;16450;50.288;10.966;2024-03-02T06:40:36;5.00;99.90
29501;DHT22;16450;50.288;10.966;2024-03-02T06:43:40;5.00;99.90
29501;DHT22;16450;50.288;10.966;2024-03-02T06:46:41;5.10;99.90
29501;DHT22;16450;50.288;10.966;2024-03-02T06:49:46;5.10;99.90
29501;DHT22;16450;50.288;10.966;2024-03-02T06:52:48;5.20;99.90
29501;DHT22;16450;50.288;10.966;2024-03-02T06:55:50;5.20;99.90
29501;DHT22;16450;50.288;10.966;2024-03-02T06:58:52;5.20;99.90
29501;DHT22;16450;50.288;10.966;2024-03-02T07:01:54;5.30;99.90
29501;DHT22;16450;50.288;10.966;2024-03-02T07:04:56;5.40;99.90
29501;DHT22;16450;50.288;10.966;2024-03-02T07:08:01;5.40;99.90
29501;DHT22;16450;50.288;10.966;2024-03-02T07:11:04;5.40;99.90
29501;DHT22;16450;50.288;10.966;2024-03-02T07:14:06;5.50;99.90
29501;DHT22;16450;50.288;10.966;2024-03-02T07:17:08;5.50;99.90
29501;DHT22;16450;50.288;10.966;2024-03-02T07:20:10;5.60;99.90
29501;DHT22;16450;50.288;10.966;2024-03-02T07:23:13;5.70;99.90
29501;DHT22;16450;50.288;10.966;2024-03-02T07:26:15;5.70;99.90
29501;DHT22;16450;50.288;10.966;2024-03-02T07:29:20;5.70;99.90
29501;DHT22;16450;50.288;10.966;2024-03-02T07:32:22;5.80;99.90
29501;DHT22;16450;50.288;10.966;2024-03-02T07:35:24;5.90;99.90
29501;DHT22;16450;50.288;10.966;2024-03-02T07:38:29;6.00;99.90
29501;DHT22;16450;50.288;10.966;2024-03-02T07:41:31;6.00;99.90
29501;DHT22;16450;50.288;10.966;2024-03-02T07:44:34;6.10;99.90
29501;DHT22;16450;50.288;10.966;2024-03-02T07:47:37;6.10;99.90
29501;DHT22;16450;50.288;10.966;2024-03-02T07:50:38;6.20;99.90
29501;DHT22;16450;50.288;10.966;2024-03-02T07:53:40;6.20;99.90
29501;DHT22;16450;50.288;10.966;2024-03-02T07:56:42;6.30;99.90
29501;DHT22;16450;50.288;10.966;2024-03-02T07:59:44;6.40;99.90
29501;DHT22;16450;50.288;10.966;2024-03-02T08:02:46;6.40;99.90
29501;DHT22;16450;50.288;10.966;2024-03-02T08:05:48;6.50;99.90
29501;DHT22;16450;50.288;10.966;2024-03-02T08:08:50;6.60;99.90
29501;DHT22;16450;50.288;10.966;2024-03-02T08:11:51;6.70;99.90
29501;DHT22;16450;50.288;10.966;2024-03-02T08:14:53;6.80;99.90
29501;DHT22;16450;50.288;10.966;2024-03-02T08:17:56;6.90;99.90
29501;DHT22;16450;50.288;10.966;2024-03-02T08:20:58;7.00;99.90
29501;DHT22;16450;50.288;10.966;2024-03-02T08:24:00;7.10;99.90
29501;DHT22;16450;50.288;10.966;2024-03-02T08:27:03;7.20;99.90
29501;DHT22;16450;50.288;10.966;2024-03-02T08:30:06;7.30;99.90
29501;DHT22;16450;50.288;10.966;2024-03-02T08:33:10;7.40;99.90
29501;DHT22;16450;50.288;10.966;2024-03-02T08:36:12;7.50;99.90
29501;DHT22;16450;50.288;10.966;2024-03-02T08:39:14;7.60;99.90
29501;DHT22;16450;50.288;10.966;2024-03-02T08:42:20;7.70;99.90
29501;DHT22;16450;50.288;10.966;2024-03-02T08:45:22;7.80;99.90
29501;DHT22;16450;50.288;10.966;2024-03-02T08:48:24;7.90;99.90
29501;DHT22;16450;50.288;10.966;2024-03-02T08:51:25;7.90;99.90
29501;DHT22;16450;50.288;10.966;2024-03-02T08:54:27;8.00;99.90
29501;DHT22;16450;50.288;10.966;2024-03-02T08:57:30;8.00;99.90
29501;DHT22;16450;50.288;10.966;2024-03-02T09:00:32;8.10;99.90
29501;DHT22;16450;50.288;10.966;2024-03-02T09:03:34;8.20;99.90
29501;DHT22;16450;50.288;10.966;2024-03-02T09:06:37;8.20;99.90
29501;DHT22;16450;50.288;10.966;2024-03-02T09:09:39;8.30;99.90
29501;DHT22;16450;50.288;10.966;2024-03-02T09:12:41;8.40;99.90
29501;DHT22;16450;50.288;10.966;2024-03-02T09:15:43;8.40;99.90
29501;DHT22;16450;50.288;10.966;2024-03-02T09:18:46;8.50;99.90
29501;DHT22;16450;50.288;10.966;2024-03-02T09:21:48;8.50;99.90
29501;DHT22;16450;50.288;10.966;2024-03-02T09:24:52;8.60;99.90
29501;DHT22;16450;50.288;10.966;2024-03-02T09:27:53;8.60;99.90
29501;DHT22;16450;50.288;10.966;2024-03-02T09:30:55;8.70;99.90
29501;DHT22;16450;50.288;10.966;2024-03-02T09:34:01;8.70;99.90
29501;DHT22;16450;50.288;10.966;2024-03-02T09:37:03;8.70;99.90
29501;DHT22;16450;50.288;10.966;2024-03-02T09:40:06;8.80;99.90
29501;DHT22;16450;50.288;10.966;2024-03-02T09:43:09;8.80;99.90
29501;DHT22;16450;50.288;10.966;2024-03-02T09:46:11;8.90;99.90
29501;DHT22;16450;50.288;10.966;2024-03-02T09:49:13;9.00;99.90
29501;DHT22;16450;50.288;10.966;2024-03-02T09:52:15;9.10;99.90
29501;DHT22;16450;50.288;10.966;2024-03-02T09:55:18;9.10;99.90
29501;DHT22;16450;50.288;10.966;2024-03-02T09:58:23;9.20;99.90
29501;DHT22;16450;50.288;10.966;2024-03-02T10:01:25;9.20;99.90
29501;DHT22;16450;50.288;10.966;2024-03-02T10:04:28;9.30;99.90
29501;DHT22;16450;50.288;10.966;2024-03-02T10:07:31;9.30;99.90
29501;DHT22;16450;50.288;10.966;2024-03-02T10:10:37;9.30;99.90
29501;DHT22;16450;50.288;10.966;2024-03-02T10:13:43;9.40;99.90
29501;DHT22;16450;50.288;10.966;2024-03-02T10:16:45;9.40;99.90
29501;DHT22;16450;50.288;10.966;2024-03-02T10:19:48;9.40;99.90
29501;DHT22;16450;50.288;10.966;2024-03-02T10:22:50;9.50;99.90
29501;DHT22;16450;50.288;10.966;2024-03-02T10:25:52;9.60;99.90
29501;DHT22;16450;50.288;10.966;2024-03-02T10:28:58;9.70;99.90
29501;DHT22;16450;50.288;10.966;2024-03-02T10:32:04;9.70;99.90
29501;DHT22;16450;50.288;10.966;2024-03-02T10:35:08;9.80;99.90
29501;DHT22;16450;50.288;10.966;2024-03-02T10:38:11;9.80;99.90
29501;DHT22;16450;50.288;10.966;2024-03-02T10:41:18;9.90;99.90
29501;DHT22;16450;50.288;10.966;2024-03-02T10:44:22;9.90;99.90
29501;DHT22;16450;50.288;10.966;2024-03-02T10:47:26;10.00;99.90
29501;DHT22;16450;50.288;10.966;2024-03-02T10:50:29;10.10;99.90
29501;DHT22;16450;50.288;10.966;2024-03-02T10:53:31;10.20;99.90
29501;DHT22;16450;50.288;10.966;2024-03-02T10:56:41;10.20;99.90
29501;DHT22;16450;50.288;10.966;2024-03-02T10:59:52;10.30;99.90
29501;DHT22;16450;50.288;10.966;2024-03-02T11:03:02;10.40;99.90
29501;DHT22;16450;50.288;10.966;2024-03-02T11:06:11;10.60;99.90
29501;DHT22;16450;50.288;10.966;2024-03-02T11:09:19;10.60;99.90
29501;DHT22;16450;50.288;10.966;2024-03-02T11:12:48;10.60;99.90
29501;DHT22;16450;50.288;10.966;2024-03-02T11:16:00;10.60;99.90
29501;DHT22;16450;50.288;10.966;2024-03-02T11:19:13;10.70;99.90
29501;DHT22;16450;50.288;10.966;2024-03-02T11:22:19;10.70;99.90
29501;DHT22;16450;50.288;10.966;2024-03-02T11:25:26;10.70;99.90
29501;DHT22;16450;50.288;10.966;2024-03-02T11:28:36;10.70;99.90
29501;DHT22;16450;50.288;10.966;2024-03-02T11:31:58;10.70;99.90
29501;DHT22;16450;50.288;10.966;2024-03-02T11:35:03;10.80;99.90
29501;DHT22;16450;50.288;10.966;2024-03-02T11:38:06;10.90;99.90
29501;DHT22;16450;50.288;10.966;2024-03-02T11:41:09;10.90;99.90
29501;DHT22;16450;50.288;10.966;2024-03-02T11:44:11;11.00;99.90
29501;DHT22;16450;50.288;10.966;2024-03-02T11:47:15;11.00;99.90
29501;DHT22;16450;50.288;10.966;2024-03-02T11:50:34;11.00;99.90
29501;DHT22;16450;50.288;10.966;2024-03-02T11:53:39;11.10;99.90
29501;DHT22;16450;50.288;10.966;2024-03-02T11:56:42;11.10;99.90
29501;DHT22;16450;50.288;10.966;2024-03-02T11:59:44;11.10;99.90
29501;DHT22;16450;50.288;10.966;2024-03-02T12:02:59;11.10;99.90
29501;DHT22;16450;50.288;10.966;2024-03-02T12:06:02;11.20;99.90
29501;DHT22;16450;50.288;10.966;2024-03-02T12:09:04;11.20;99.90
29501;DHT22;16450;50.288;10.966;2024-03-02T12:12:10;11.20;99.90
29501;DHT22;16450;50.288;10.966;2024-03-02T12:15:12;11.20;99.90
29501;DHT22;16450;50.288;10.966;2024-03-02T12:18:14;11.20;99.90
29501;DHT22;16450;50.288;10.966;2024-03-02T12:21:16;11.20;99.90
29501;DHT22;16450;50.288;10.966;2024-03-02T12:24:18;11.30;99.90
29501;DHT22;16450;50.288;10.966;2024-03-02T12:27:21;11.40;99.90
29501;DHT22;16450;50.288;10.966;2024-03-02T12:30:29;11.50;99.90
29501;DHT22;16450;50.288;10.966;2024-03-02T12:33:31;11.50;99.90
29501;DHT22;16450;50.288;10.966;2024-03-02T12:36:40;11.60;99.90
29501;DHT22;16450;50.288;10.966;2024-03-02T12:39:46;11.60;99.90
29501;DHT22;16450;50.288;10.966;2024-03-02T12:42:49;11.70;99.90
29501;DHT22;16450;50.288;10.966;2024-03-02T12:45:53;11.80;99.90
29501;DHT22;16450;50.288;10.966;2024-03-02T12:48:58;11.80;99.90
29501;DHT22;16450;50.288;10.966;2024-03-02T12:52:01;11.90;99.90
29501;DHT22;16450;50.288;10.966;2024-03-02T12:55:05;12.00;99.90
29501;DHT22;16450;50.288;10.966;2024-03-02T12:58:07;12.10;99.90
29501;DHT22;16450;50.288;10.966;2024-03-02T13:01:10;12.10;99.90
29501;DHT22;16450;50.288;10.966;2024-03-02T13:04:12;12.20;99.90
29501;DHT22;16450;50.288;10.966;2024-03-02T13:07:14;12.30;99.90
29501;DHT22;16450;50.288;10.966;2024-03-02T13:10:17;12.40;99.90
29501;DHT22;16450;50.288;10.966;2024-03-02T13:13:20;12.40;99.90
29501;DHT22;16450;50.288;10.966;2024-03-02T13:16:22;12.40;99.90
29501;DHT22;16450;50.288;10.966;2024-03-02T13:19:33;12.40;99.90
29501;DHT22;16450;50.288;10.966;2024-03-02T13:22:35;12.40;99.90
29501;DHT22;16450;50.288;10.966;2024-03-02T13:25:37;12.40;99.90
29501;DHT22;16450;50.288;10.966;2024-03-02T13:28:39;12.40;99.90
29501;DHT22;16450;50.288;10.966;2024-03-02T13:31:41;12.40;99.90
29501;DHT22;16450;50.288;10.966;2024-03-02T13:34:43;12.50;99.90
29501;DHT22;16450;50.288;10.966;2024-03-02T13:37:46;12.40;99.90
29501;DHT22;16450;50.288;10.966;2024-03-02T13:40:49;12.50;99.90
29501;DHT22;16450;50.288;10.966;2024-03-02T13:43:54;12.50;99.90
29501;DHT22;16450;50.288;10.966;2024-03-02T13:46:56;12.50;99.90
29501;DHT22;16450;50.288;10.966;2024-03-02T13:49:58;12.50;99.90
29501;DHT22;16450;50.288;10.966;2024-03-02T13:53:00;12.60;99.90
29501;DHT22;16450;50.288;10.966;2024-03-02T13:56:02;12.60;99.90
29501;DHT22;16450;50.288;10.966;2024-03-02T13:59:05;12.60;99.90
29501;DHT22;16450;50.288;10.966;2024-03-02T14:02:08;12.60;99.90
29501;DHT22;16450;50.288;10.966;2024-03-02T14:05:11;12.60;99.90
29501;DHT22;16450;50.288;10.966;2024-03-02T14:08:13;12.70;99.90
29501;DHT22;16450;50.288;10.966;2024-03-02T14:11:15;12.60;99.90
29501;DHT22;16450;50.288;10.966;2024-03-02T14:14:18;12.60;99.90
29501;DHT22;16450;50.288;10.966;2024-03-02T14:17:20;12.60;99.90
29501;DHT22;16450;50.288;10.966;2024-03-02T14:20:22;12.50;99.90
29501;DHT22;16450;50.288;10.966;2024-03-02T14:23:25;12.50;99.90
29501;DHT22;16450;50.288;10.966;2024-03-02T14:26:27;12.50;99.90
29501;DHT22;16450;50.288;10.966;2024-03-02T14:29:29;12.50;99.90
29501;DHT22;16450;50.288;10.966;2024-03-02T14:32:31;12.50;99.90
29501;DHT22;16450;50.288;10.966;2024-03-02T14:35:33;12.50;99.90
29501;DHT22;16450;50.288;10.966;2024-03-02T14:38:35;12.50;99.90
29501;DHT22;16450;50.288;10.966;2024-03-02T14:41:38;12.50;99.90
29501;DHT22;16450;50.288;10.966;2024-03-02T14:44:40;12.60;99.90
29501;DHT22;16450;50.288;10.966;2024-03-02T14:47:41;12.50;99.90
29501;DHT22;16450;50.288;10.966;2024-03-02T14:50:44;12.50;99.90
29501;DHT22;16450;50.288;10.966;2024-03-02T14:53:46;12.60;99.90
29501;DHT22;16450;50.288;10.966;2024-03-02T14:56:47;12.60;99.90
29501;DHT22;16450;50.288;10.966;2024-03-02T14:59:49;12.60;99.90
29501;DHT22;16450;50.288;10.966;2024-03-02T15:02:51;12.50;99.90
29501;DHT22;16450;50.288;10.966;2024-03-02T15:05:53;12.60;99.90
29501;DHT22;16450;50.288;10.966;2024-03-02T15:08:55;12.70;99.90
29501;DHT22;16450;50.288;10.966;2024-03-02T15:11:57;12.70;99.90
29501;DHT22;16450;50.288;10.966;2024-03-02T15:14:59;12.70;99.90
29501;DHT22;16450;50.288;10.966;2024-03-02T15:18:01;12.70;99.90
29501;DHT22;16450;50.288;10.966;2024-03-02T15:21:04;12.80;99.90
29501;DHT22;16450;50.288;10.966;2024-03-02T15:24:06;12.70;99.90
29501;DHT22;16450;50.288;10.966;2024-03-02T15:27:08;12.70;99.90
29501;DHT22;16450;50.288;10.966;2024-03-02T15:30:10;12.70;99.90
29501;DHT22;16450;50.288;10.966;2024-03-02T15:33:12;12.70;99.90
29501;DHT22;16450;50.288;10.966;2024-03-02T15:36:14;12.70;99.90
29501;DHT22;16450;50.288;10.966;2024-03-02T15:39:16;12.70;99.90
29501;DHT22;16450;50.288;10.966;2024-03-02T15:42:19;12.60;99.90
29501;DHT22;16450;50.288;10.966;2024-03-02T15:45:24;12.60;99.90
29501;DHT22;16450;50.288;10.966;2024-03-02T15:48:35;12.50;99.90
29501;DHT22;16450;50.288;10.966;2024-03-02T15:51:37;12.40;99.90
29501;DHT22;16450;50.288;10.966;2024-03-02T15:54:42;12.40;99.90
29501;DHT22;16450;50.288;10.966;2024-03-02T15:57:45;12.30;99.90
29501;DHT22;16450;50.288;10.966;2024-03-02T16:00:47;12.30;99.90
29501;DHT22;16450;50.288;10.966;2024-03-02T16:03:49;12.20;99.90
29501;DHT22;16450;50.288;10.966;2024-03-02T16:06:53;12.10;99.90
29501;DHT22;16450;50.288;10.966;2024-03-02T16:09:55;12.00;99.90
29501;DHT22;16450;50.288;10.966;2024-03-02T16:12:57;11.90;99.90
29501;DHT22;16450;50.288;10.966;2024-03-02T16:16:02;11.80;99.90
29501;DHT22;16450;50.288;10.966;2024-03-02T16:19:04;11.70;99.90
29501;DHT22;16450;50.288;10.966;2024-03-02T16:22:17;11.60;99.90
29501;DHT22;16450;50.288;10.966;2024-03-02T16:25:19;11.50;99.90
29501;DHT22;16450;50.288;10.966;2024-03-02T16:28:21;11.40;99.90
29501;DHT22;16450;50.288;10.966;2024-03-02T16:31:23;11.40;99.90
29501;DHT22;16450;50.288;10.966;2024-03-02T16:34:26;11.20;99.90
29501;DHT22;16450;50.288;10.966;2024-03-02T16:37:28;11.10;99.90
29501;DHT22;16450;50.288;10.966;2024-03-02T16:40:30;11.00;99.90
29501;DHT22;16450;50.288;10.966;2024-03-02T16:43:35;10.90;99.90
29501;DHT22;16450;50.288;10.966;2024-03-02T16:46:37;10.80;99.90
29501;DHT22;16450;50.288;10.966;2024-03-02T16:49:45;10.70;99.90
29501;DHT22;16450;50.288;10.966;2024-03-02T16:52:47;10.50;99.90
29501;DHT22;16450;50.288;10.966;2024-03-02T16:55:48;10.50;99.90
29501;DHT22;16450;50.288;10.966;2024-03-02T16:58:50;10.30;99.90
29501;DHT22;16450;50.288;10.966;2024-03-02T17:01:53;10.20;99.90
29501;DHT22;16450;50.288;10.966;2024-03-02T17:04:55;10.20;99.90
29501;DHT22;16450;50.288;10.966;2024-03-02T17:07:57;10.10;99.90
29501;DHT22;16450;50.288;10.966;2024-03-02T17:10:59;10.00;99.90
29501;DHT22;16450;50.288;10.966;2024-03-02T17:14:02;9.70;99.90
29501;DHT22;16450;50.288;10.966;2024-03-02T17:17:05;9.80;99.90
29501;DHT22;16450;50.288;10.966;2024-03-02T17:20:07;9.70;99.90
29501;DHT22;16450;50.288;10.966;2024-03-02T17:23:11;9.60;99.90
29501;DHT22;16450;50.288;10.966;2024-03-02T17:26:12;9.60;99.90
29501;DHT22;16450;50.288;10.966;2024-03-02T17:29:14;9.50;99.90
29501;DHT22;16450;50.288;10.966;2024-03-02T17:32:16;9.40;99.90
29501;DHT22;16450;50.288;10.966;2024-03-02T17:35:19;9.40;99.90
29501;DHT22;16450;50.288;10.966;2024-03-02T17:38:21;9.30;99.90
29501;DHT22;16450;50.288;10.966;2024-03-02T17:41:23;9.20;99.90
29501;DHT22;16450;50.288;10.966;2024-03-02T17:44:25;9.20;99.90
29501;DHT22;16450;50.288;10.966;2024-03-02T17:47:27;9.10;99.90
29501;DHT22;16450;50.288;10.966;2024-03-02T17:50:29;9.10;99.90
29501;DHT22;16450;50.288;10.966;2024-03-02T17:53:31;9.00;99.90
29501;DHT22;16450;50.288;10.966;2024-03-02T17:56:33;8.90;99.90
29501;DHT22;16450;50.288;10.966;2024-03-02T17:59:35;8.90;99.90
29501;DHT22;16450;50.288;10.966;2024-03-02T18:02:42;8.90;99.90
29501;DHT22;16450;50.288;10.966;2024-03-02T18:05:43;8.80;99.90
29501;DHT22;16450;50.288;10.966;2024-03-02T18:08:45;8.70;99.90
29501;DHT22;16450;50.288;10.966;2024-03-02T18:11:50;8.60;99.90
29501;DHT22;16450;50.288;10.966;2024-03-02T18:14:52;8.60;99.90
29501;DHT22;16450;50.288;10.966;2024-03-02T18:17:54;8.50;99.90
29501;DHT22;16450;50.288;10.966;2024-03-02T18:20:56;8.50;99.90
29501;DHT22;16450;50.288;10.966;2024-03-02T18:23:58;8.40;99.90
29501;DHT22;16450;50.288;10.966;2024-03-02T18:26:59;8.40;99.90
29501;DHT22;16450;50.288;10.966;2024-03-02T18:30:01;8.30;99.90
29501;DHT22;16450;50.288;10.966;2024-03-02T18:33:06;8.20;99.90
29501;DHT22;16450;50.288;10.966;2024-03-02T18:36:08;8.20;99.90
29501;DHT22;16450;50.288;10.966;2024-03-02T18:39:10;8.10;99.90
29501;DHT22;16450;50.288;10.966;2024-03-02T18:42:12;8.10;99.90
29501;DHT22;16450;50.288;10.966;2024-03-02T18:45:14;8.00;99.90
29501;DHT22;16450;50.288;10.966;2024-03-02T18:48:16;8.00;99.90
29501;DHT22;16450;50.288;10.966;2024-03-02T18:51:20;7.90;99.90
29501;DHT22;16450;50.288;10.966;2024-03-02T18:54:25;7.90;99.90
29501;DHT22;16450;50.288;10.966;2024-03-02T18:57:28;7.90;99.90
29501;DHT22;16450;50.288;10.966;2024-03-02T19:00:30;7.80;99.90
29501;DHT22;16450;50.288;10.966;2024-03-02T19:03:32;7.80;99.90
29501;DHT22;16450;50.288;10.966;2024-03-02T19:06:34;7.70;99.90
29501;DHT22;16450;50.288;10.966;2024-03-02T19:09:36;7.70;99.90